Alvarado, Minnesota
Current Conditions -  °F | °C
As of 10:53 AM on Friday 28 Nov 2014 (Local Time) from KGFK Reporting Station
Light Snow Light Snow  
Wind Chill: -14°   Ceiling: 4700
Heat Index: -10°   Visibility: 3mi
Dew Point: -13°   Wind: 5mph
Humidity: 80%   Direction: 120°ESE
Pressure: 29.94"   Gusts: NA
Location:  48.19°N, 97°W
Report Text: KGFK 281653Z 12004KT 3SM -SN SCT013 SCT035 OVC047 M10/M13 A2994 RMK AO2 SLP160 P0000 T11001128
Loading
Personal Weather Stations






























Interactive Weather Map New forecast layout! Learn more

10-Day Weather Forecast

Advertisements
Track Severe Weather on mobile